createdAt,value
2022-08-29T00:00:49.468Z,5.47
2022-08-29T00:03:17.768Z,5.50
2022-08-29T00:05:49.984Z,5.90
2022-08-29T00:08:17.739Z,5.97
2022-08-29T00:10:44.577Z,7.68
2022-08-29T00:13:13.605Z,6.38
2022-08-29T00:15:45.138Z,6.28
2022-08-29T00:18:14.245Z,6.20
2022-08-29T00:20:42.036Z,7.40
2022-08-29T00:23:09.558Z,7.43
2022-08-29T00:25:37.144Z,7.28
2022-08-29T00:28:05.030Z,6.30
2022-08-29T00:30:33.427Z,6.10
2022-08-29T00:33:00.416Z,6.82
2022-08-29T00:35:31.101Z,5.93
2022-08-29T00:37:58.457Z,5.95
2022-08-29T00:40:29.673Z,5.82
2022-08-29T00:42:57.325Z,6.10
2022-08-29T00:45:24.624Z,5.82
2022-08-29T00:48:11.957Z,6.63
2022-08-29T00:50:48.058Z,6.65
2022-08-29T00:53:17.387Z,6.60
2022-08-29T00:55:50.555Z,6.40
2022-08-29T00:58:37.589Z,6.55
2022-08-29T01:01:05.240Z,6.85
2022-08-29T01:03:34.142Z,6.38
2022-08-29T01:06:02.898Z,6.25
2022-08-29T01:08:30.384Z,5.70
2022-08-29T01:11:15.926Z,7.05
2022-08-29T01:13:46.811Z,5.03
2022-08-29T01:16:16.123Z,5.72
2022-08-29T01:18:47.389Z,5.45
2022-08-29T01:21:29.290Z,6.30
2022-08-29T01:24:29.726Z,5.35
2022-08-29T01:26:57.401Z,6.97
2022-08-29T01:29:24.263Z,6.75
2022-08-29T01:31:56.796Z,5.65
2022-08-29T01:34:26.801Z,6.30
2022-08-29T01:37:00.490Z,5.65
2022-08-29T01:39:36.525Z,6.53
2022-08-29T01:42:07.377Z,6.13
2022-08-29T01:44:34.246Z,6.47
2022-08-29T01:47:03.259Z,6.30
2022-08-29T01:49:32.624Z,6.13
2022-08-29T01:51:59.907Z,6.32
2022-08-29T01:54:27.213Z,6.03
2022-08-29T01:56:54.821Z,5.95
2022-08-29T01:59:26.222Z,6.03
2022-08-29T02:01:59.214Z,5.40
2022-08-29T02:04:26.008Z,6.05
2022-08-29T02:06:52.942Z,5.90
2022-08-29T02:09:19.885Z,5.72
2022-08-29T02:11:48.239Z,5.15
2022-08-29T02:14:19.054Z,5.28
2022-08-29T02:16:47.329Z,5.13
2022-08-29T02:19:14.472Z,5.10
2022-08-29T02:21:41.334Z,5.10
2022-08-29T02:24:24.341Z,5.38
2022-08-29T02:26:52.246Z,5.60
2022-08-29T02:29:19.053Z,5.32
2022-08-29T02:31:45.868Z,6.00
2022-08-29T02:34:13.032Z,5.35
2022-08-29T02:36:40.798Z,5.32
2022-08-29T02:39:08.934Z,5.43
2022-08-29T02:41:36.114Z,5.38
2022-08-29T02:44:03.548Z,6.13
2022-08-29T02:46:30.757Z,5.97
2022-08-29T02:49:00.656Z,6.10
2022-08-29T02:51:31.094Z,6.55
2022-08-29T02:53:58.207Z,6.05
2022-08-29T02:56:25.118Z,6.35
2022-08-29T02:58:52.069Z,5.70
2022-08-29T03:01:20.472Z,6.18
2022-08-29T03:03:47.906Z,6.78
2022-08-29T03:06:14.818Z,5.95
2022-08-29T03:08:41.655Z,6.65
2022-08-29T03:11:08.853Z,6.50
2022-08-29T03:13:37.056Z,5.78
2022-08-29T03:16:04.417Z,6.68
2022-08-29T03:18:31.335Z,5.82
2022-08-29T03:20:58.441Z,6.00
2022-08-29T03:23:25.556Z,6.32
2022-08-29T03:25:52.510Z,5.95
2022-08-29T03:28:19.392Z,6.78
2022-08-29T03:30:46.778Z,5.63
2022-08-29T03:33:13.711Z,5.35
2022-08-29T03:35:40.676Z,5.78
2022-08-29T03:38:07.666Z,5.80
2022-08-29T03:40:34.855Z,6.40
2022-08-29T03:43:03.369Z,6.95
2022-08-29T03:45:30.722Z,5.82
2022-08-29T03:47:57.624Z,6.00
2022-08-29T03:50:24.631Z,5.18
2022-08-29T03:52:52.088Z,5.90
2022-08-29T03:55:20.281Z,4.97
2022-08-29T03:57:47.337Z,5.15
2022-08-29T04:00:17.655Z,5.35
2022-08-29T04:02:46.578Z,4.85
2022-08-29T04:05:15.903Z,5.00
2022-08-29T04:07:51.732Z,4.57
2022-08-29T04:10:26.438Z,4.32
2022-08-29T04:12:55.037Z,4.47
2022-08-29T04:15:23.734Z,4.57
2022-08-29T04:17:54.528Z,5.13
2022-08-29T04:20:25.439Z,5.53
2022-08-29T04:22:54.309Z,6.15
2022-08-29T04:25:25.071Z,4.95
2022-08-29T04:27:53.346Z,4.47
2022-08-29T04:30:23.877Z,4.95
2022-08-29T04:32:50.913Z,4.70
2022-08-29T04:35:17.796Z,5.30
2022-08-29T04:37:44.941Z,4.75
2022-08-29T04:40:16.171Z,5.15
2022-08-29T04:42:43.286Z,4.60
2022-08-29T04:45:12.429Z,4.63
2022-08-29T04:47:40.176Z,4.35
2022-08-29T04:50:09.011Z,4.38
2022-08-29T04:52:36.978Z,4.93
2022-08-29T04:55:05.749Z,4.85
2022-08-29T04:57:34.049Z,5.18
2022-08-29T05:00:00.898Z,5.22
2022-08-29T05:02:28.456Z,5.60
2022-08-29T05:04:56.922Z,5.55
2022-08-29T05:07:26.823Z,6.18
2022-08-29T05:10:00.265Z,6.00
2022-08-29T05:12:29.269Z,6.13
2022-08-29T05:14:56.912Z,6.38
2022-08-29T05:17:24.538Z,6.68
2022-08-29T05:19:51.370Z,7.05
2022-08-29T05:22:19.905Z,6.43
2022-08-29T05:24:47.561Z,7.25
2022-08-29T05:27:20.194Z,7.65
2022-08-29T05:29:49.241Z,7.40
2022-08-29T05:32:17.554Z,8.32
2022-08-29T05:34:45.306Z,7.85
2022-08-29T05:37:19.468Z,7.63
2022-08-29T05:39:49.248Z,9.37
2022-08-29T05:42:17.632Z,8.45
2022-08-29T05:44:44.702Z,8.32
2022-08-29T05:47:14.300Z,8.30
2022-08-29T05:49:43.016Z,8.32
2022-08-29T05:52:11.708Z,8.15
2022-08-29T05:54:40.162Z,9.40
2022-08-29T05:57:08.081Z,7.85
2022-08-29T05:59:35.461Z,8.25
2022-08-29T06:02:02.721Z,9.00
2022-08-29T06:04:29.562Z,9.32
2022-08-29T06:06:56.443Z,9.23
2022-08-29T06:09:23.234Z,8.60
2022-08-29T06:11:53.132Z,8.45
2022-08-29T06:14:20.310Z,8.73
2022-08-29T06:16:47.261Z,9.55
2022-08-29T06:19:14.623Z,9.60
2022-08-29T06:21:41.675Z,8.90
2022-08-29T06:24:08.862Z,8.27
2022-08-29T06:26:35.967Z,8.13
2022-08-29T06:29:09.330Z,8.63
2022-08-29T06:31:36.425Z,8.52
2022-08-29T06:34:05.847Z,8.25
2022-08-29T06:36:34.504Z,8.90
2022-08-29T06:39:07.398Z,9.65
2022-08-29T06:41:35.753Z,8.48
2022-08-29T06:44:03.249Z,7.75
2022-08-29T06:46:33.023Z,7.82
2022-08-29T06:49:01.412Z,8.60
2022-08-29T06:51:32.871Z,8.25
2022-08-29T06:54:01.462Z,8.70
2022-08-29T06:56:32.353Z,8.73
2022-08-29T06:58:59.711Z,8.27
2022-08-29T07:01:27.073Z,8.50
2022-08-29T07:03:55.113Z,8.40
2022-08-29T07:06:22.259Z,8.32
2022-08-29T07:08:55.699Z,8.50
2022-08-29T07:11:28.065Z,9.73
2022-08-29T07:13:58.213Z,8.23
2022-08-29T07:16:26.340Z,8.40
2022-08-29T07:18:53.708Z,8.50
2022-08-29T07:21:24.190Z,8.18
2022-08-29T07:23:52.065Z,8.07
2022-08-29T07:26:25.213Z,8.15
2022-08-29T07:28:54.147Z,9.43
2022-08-29T07:31:21.451Z,9.27
2022-08-29T07:33:59.710Z,8.73
2022-08-29T07:36:30.010Z,8.48
2022-08-29T07:38:56.983Z,8.70
2022-08-29T07:41:24.865Z,9.18
2022-08-29T07:43:51.865Z,8.45
2022-08-29T07:46:22.826Z,9.43
2022-08-29T07:48:49.699Z,8.65
2022-08-29T07:51:20.197Z,8.68
2022-08-29T07:53:47.197Z,9.10
2022-08-29T07:56:19.224Z,8.88
2022-08-29T07:58:46.068Z,8.48
2022-08-29T08:01:16.021Z,8.45
2022-08-29T08:03:50.152Z,8.18
2022-08-29T08:06:19.653Z,8.07
2022-08-29T08:08:47.206Z,8.75
2022-08-29T08:11:14.065Z,9.77
2022-08-29T08:13:41.202Z,8.52
2022-08-29T08:16:15.423Z,8.75
2022-08-29T08:18:43.497Z,8.70
2022-08-29T08:21:12.447Z,8.43
2022-08-29T08:23:39.909Z,8.77
2022-08-29T08:26:08.743Z,8.50
2022-08-29T08:28:35.952Z,7.97
2022-08-29T08:31:06.784Z,8.68
2022-08-29T08:33:35.285Z,8.25
2022-08-29T08:36:03.970Z,8.48
2022-08-29T08:38:31.712Z,7.63
2022-08-29T08:41:04.308Z,8.93
2022-08-29T08:43:42.608Z,8.13
2022-08-29T08:46:09.545Z,8.57
2022-08-29T08:48:39.110Z,8.40
2022-08-29T08:51:13.998Z,8.48
2022-08-29T08:53:47.610Z,7.93
2022-08-29T08:56:28.478Z,7.15
2022-08-29T08:59:03.874Z,8.57
2022-08-29T09:01:56.490Z,8.02
2022-08-29T09:04:39.034Z,8.13
2022-08-29T09:07:44.347Z,7.93
2022-08-29T09:10:20.140Z,7.47
2022-08-29T09:13:24.581Z,8.05
2022-08-29T09:15:54.536Z,6.90
2022-08-29T09:18:35.058Z,6.80
2022-08-29T09:21:10.094Z,6.57
2022-08-29T09:23:57.673Z,6.40
2022-08-29T09:26:24.808Z,6.63
2022-08-29T09:28:51.606Z,6.05
2022-08-29T09:31:31.488Z,6.88
2022-08-29T09:34:00.450Z,6.53
2022-08-29T09:36:33.869Z,5.88
2022-08-29T09:39:24.067Z,6.53
2022-08-29T09:41:55.059Z,6.15
2022-08-29T09:44:26.939Z,6.50
2022-08-29T09:47:21.328Z,6.80
2022-08-29T09:50:13.014Z,6.60
2022-08-29T09:52:57.869Z,7.25
2022-08-29T09:55:32.676Z,6.50
2022-08-29T10:00:39.356Z,6.55
2022-08-29T10:03:11.147Z,6.70
2022-08-29T10:05:41.679Z,6.60
2022-08-29T10:08:35.061Z,6.35
2022-08-29T10:11:17.873Z,5.78
2022-08-29T10:13:52.493Z,5.70
2022-08-29T10:16:28.476Z,5.80
2022-08-29T10:18:59.450Z,5.97
2022-08-29T10:22:07.462Z,5.85
2022-08-29T10:24:54.295Z,5.95
2022-08-29T10:27:46.738Z,5.40
2022-08-29T10:30:50.624Z,5.47
2022-08-29T10:33:36.254Z,5.47
2022-08-29T10:36:17.376Z,4.85
2022-08-29T10:38:48.014Z,5.63
2022-08-29T10:41:37.978Z,5.25
2022-08-29T10:44:35.193Z,5.40
2022-08-29T10:47:11.135Z,5.78
2022-08-29T10:50:43.774Z,6.00
2022-08-29T10:53:30.394Z,5.78
2022-08-29T10:56:19.160Z,6.10
2022-08-29T10:59:06.313Z,6.13
2022-08-29T11:01:36.248Z,6.20
2022-08-29T11:04:06.335Z,5.85
2022-08-29T11:06:41.135Z,5.45
2022-08-29T11:09:10.893Z,5.90
2022-08-29T11:11:41.394Z,6.38
2022-08-29T11:14:29.042Z,6.38
2022-08-29T11:16:56.510Z,5.97
2022-08-29T11:19:41.957Z,5.32
2022-08-29T11:22:21.365Z,5.72
2022-08-29T11:25:13.107Z,6.05
2022-08-29T11:28:17.960Z,5.63
2022-08-29T11:31:14.744Z,5.37
2022-08-29T11:33:55.591Z,5.75
2022-08-29T11:36:40.870Z,6.20
2022-08-29T11:39:13.797Z,5.53
2022-08-29T11:41:47.836Z,6.10
2022-08-29T11:44:19.958Z,6.68
2022-08-29T11:46:53.492Z,5.78
2022-08-29T11:49:36.448Z,6.05
2022-08-29T11:52:09.169Z,5.90
2022-08-29T11:54:35.912Z,5.93
2022-08-29T11:57:05.753Z,6.03
2022-08-29T11:59:50.891Z,6.03
2022-08-29T12:04:59.497Z,6.05
2022-08-29T12:07:50.950Z,5.45
2022-08-29T12:10:21.971Z,6.80
2022-08-29T12:12:53.833Z,5.82
2022-08-29T12:15:32.700Z,5.82
2022-08-29T12:18:22.604Z,5.40
2022-08-29T12:20:58.674Z,5.57
2022-08-29T12:23:35.763Z,6.00
2022-08-29T12:26:45.579Z,5.55
2022-08-29T12:29:41.995Z,5.25
2022-08-29T12:32:23.129Z,5.38
2022-08-29T12:35:35.679Z,5.97
2022-08-29T12:38:07.698Z,5.28
2022-08-29T12:41:00.669Z,5.95
2022-08-29T12:43:43.862Z,6.03
2022-08-29T12:46:19.426Z,5.45
2022-08-29T12:48:57.681Z,5.78
2022-08-29T12:51:37.774Z,5.35
2022-08-29T12:54:05.676Z,5.57
2022-08-29T12:56:33.274Z,6.10
2022-08-29T12:59:03.645Z,5.72
2022-08-29T13:01:40.380Z,5.95
2022-08-29T13:04:16.043Z,5.53
2022-08-29T13:07:15.893Z,5.32
2022-08-29T13:09:52.330Z,6.15
2022-08-29T13:12:32.201Z,7.55
2022-08-29T13:15:20.792Z,6.10
2022-08-29T13:17:50.113Z,6.00
2022-08-29T13:20:38.710Z,5.65
2022-08-29T13:23:16.597Z,6.80
2022-08-29T13:25:59.888Z,6.15
2022-08-29T13:28:47.325Z,6.35
2022-08-29T13:31:17.095Z,6.10
2022-08-29T13:33:49.599Z,5.38
2022-08-29T13:36:50.746Z,5.72
2022-08-29T13:39:17.555Z,5.43
2022-08-29T13:41:57.709Z,5.25
2022-08-29T13:44:58.853Z,6.47
2022-08-29T13:47:31.296Z,6.00
2022-08-29T13:50:01.321Z,6.40
2022-08-29T13:52:31.934Z,6.25
2022-08-29T13:54:59.660Z,5.55
2022-08-29T13:57:29.348Z,6.53
2022-08-29T13:59:57.534Z,5.82
2022-08-29T14:02:25.244Z,6.00
2022-08-29T14:04:52.370Z,6.13
2022-08-29T14:07:25.724Z,6.18
2022-08-29T14:09:53.797Z,6.25
2022-08-29T14:12:21.459Z,5.22
2022-08-29T14:15:05.299Z,6.25
2022-08-29T14:17:35.428Z,6.10
2022-08-29T14:20:02.465Z,6.93
2022-08-29T14:22:29.230Z,5.90
2022-08-29T14:24:56.044Z,6.25
2022-08-29T14:27:22.947Z,6.47
2022-08-29T14:29:51.155Z,5.78
2022-08-29T14:32:18.161Z,6.30
2022-08-29T14:34:51.132Z,6.22
2022-08-29T14:37:19.564Z,6.37
2022-08-29T14:39:49.612Z,6.70
2022-08-29T14:42:17.596Z,5.90
2022-08-29T14:44:44.720Z,5.72
2022-08-29T14:47:11.795Z,5.82
2022-08-29T14:49:38.892Z,6.15
2022-08-29T14:52:06.333Z,6.30
2022-08-29T14:54:33.313Z,5.57
2022-08-29T14:57:00.572Z,5.35
2022-08-29T14:59:28.055Z,5.65
2022-08-29T15:01:55.507Z,4.57
2022-08-29T15:04:35.131Z,4.80
2022-08-29T15:07:05.819Z,3.90
2022-08-29T15:09:32.962Z,3.22
2022-08-29T15:11:59.846Z,3.22
2022-08-29T15:14:26.765Z,3.15
2022-08-29T15:16:53.669Z,3.35
2022-08-29T15:22:08.674Z,2.42
2022-08-29T15:24:35.662Z,3.35
2022-08-29T15:27:03.121Z,3.22
2022-08-29T15:29:30.082Z,4.13
2022-08-29T15:31:57.437Z,4.18
2022-08-29T15:34:28.508Z,3.92
2022-08-29T15:36:56.184Z,4.32
2022-08-29T15:39:25.516Z,4.18
2022-08-29T15:41:52.396Z,4.65
2022-08-29T15:44:19.452Z,5.40
2022-08-29T15:46:50.759Z,5.30
2022-08-29T15:49:19.993Z,6.40
2022-08-29T15:51:48.424Z,5.55
2022-08-29T15:54:15.842Z,6.63
2022-08-29T15:56:43.001Z,6.38
2022-08-29T15:59:11.765Z,5.93
2022-08-29T16:01:45.370Z,6.68
2022-08-29T16:04:13.044Z,6.72
2022-08-29T16:06:40.225Z,5.53
2022-08-29T16:09:15.379Z,6.13
2022-08-29T16:11:48.174Z,5.75
2022-08-29T16:14:57.617Z,5.90
2022-08-29T16:17:04.942Z,7.15
2022-08-29T16:19:32.270Z,5.80
2022-08-29T16:22:04.241Z,6.35
2022-08-29T16:24:32.087Z,6.45
2022-08-29T16:26:59.784Z,6.03
2022-08-29T16:29:27.120Z,6.03
2022-08-29T16:31:56.049Z,6.78
2022-08-29T16:34:28.726Z,6.20
2022-08-29T16:37:00.351Z,6.53
2022-08-29T16:39:28.287Z,5.15
2022-08-29T16:41:55.455Z,6.03
2022-08-29T16:44:24.505Z,6.00
2022-08-29T16:46:51.828Z,6.13
2022-08-29T16:49:19.012Z,5.78
2022-08-29T16:51:46.097Z,5.72
2022-08-29T16:54:13.356Z,6.95
2022-08-29T16:56:40.217Z,6.80
2022-08-29T16:59:07.629Z,7.03
2022-08-29T17:01:37.172Z,9.32
2022-08-29T17:04:10.626Z,6.60
2022-08-29T17:06:38.964Z,6.95
2022-08-29T17:09:08.665Z,6.95
2022-08-29T17:11:37.356Z,6.97
2022-08-29T17:14:05.148Z,7.15
2022-08-29T17:16:32.346Z,6.97
2022-08-29T17:18:59.992Z,7.47
2022-08-29T17:21:27.231Z,6.82
2022-08-29T17:23:55.448Z,7.10
2022-08-29T17:26:22.701Z,6.43
2022-08-29T17:28:49.564Z,6.85
2022-08-29T17:31:16.870Z,7.05
2022-08-29T17:33:44.306Z,6.72
2022-08-29T17:36:12.083Z,6.15
2022-08-29T17:38:45.103Z,6.60
2022-08-29T17:41:17.595Z,6.57
2022-08-29T17:43:46.150Z,6.15
2022-08-29T17:46:13.259Z,7.68
2022-08-29T17:48:40.388Z,6.53
2022-08-29T17:51:07.593Z,6.45
2022-08-29T17:53:35.240Z,6.82
2022-08-29T17:56:17.667Z,6.82
2022-08-29T17:58:45.087Z,7.20
2022-08-29T18:01:16.472Z,7.03
2022-08-29T18:03:44.588Z,7.03
2022-08-29T18:06:14.442Z,7.00
2022-08-29T18:08:48.443Z,6.70
2022-08-29T18:11:16.559Z,6.50
2022-08-29T18:13:43.855Z,7.20
2022-08-29T18:16:11.957Z,7.18
2022-08-29T18:18:39.082Z,6.95
2022-08-29T18:21:06.118Z,6.53
2022-08-29T18:23:33.707Z,7.47
2022-08-29T18:26:01.705Z,7.03
2022-08-29T18:28:28.717Z,7.47
2022-08-29T18:30:56.233Z,7.03
2022-08-29T18:33:26.243Z,7.57
2022-08-29T18:35:58.477Z,7.43
2022-08-29T18:38:25.331Z,7.13
2022-08-29T18:40:53.724Z,7.90
2022-08-29T18:43:22.627Z,7.45
2022-08-29T18:45:50.255Z,8.20
2022-08-29T18:48:17.416Z,7.93
2022-08-29T18:50:45.054Z,8.68
2022-08-29T18:53:15.023Z,6.85
2022-08-29T18:55:48.721Z,7.32
2022-08-29T18:58:20.059Z,8.23
2022-08-29T19:00:47.045Z,7.35
2022-08-29T19:03:14.654Z,8.45
2022-08-29T19:05:46.937Z,8.02
2022-08-29T19:08:15.493Z,8.20
2022-08-29T19:10:45.933Z,8.25
2022-08-29T19:13:14.364Z,8.27
2022-08-29T19:15:42.681Z,7.80
2022-08-29T19:18:10.151Z,8.48
2022-08-29T19:20:55.978Z,7.55
2022-08-29T19:23:24.090Z,8.25
2022-08-29T19:25:51.450Z,8.15
2022-08-29T19:28:19.928Z,8.57
2022-08-29T19:30:48.686Z,8.15
2022-08-29T19:33:17.884Z,8.30
2022-08-29T19:35:49.084Z,9.20
2022-08-29T19:38:16.599Z,8.70
2022-08-29T19:40:44.849Z,9.07
2022-08-29T19:43:13.932Z,9.32
2022-08-29T19:45:42.856Z,8.68
2022-08-29T19:48:10.706Z,9.15
2022-08-29T19:50:42.274Z,10.23
2022-08-29T19:53:10.048Z,9.50
2022-08-29T19:55:38.869Z,9.68
2022-08-29T19:58:07.026Z,10.27
2022-08-29T20:00:34.894Z,10.07
2022-08-29T20:03:01.996Z,10.20
2022-08-29T20:05:28.897Z,10.75
2022-08-29T20:07:55.969Z,9.55
2022-08-29T20:10:25.089Z,10.38
2022-08-29T20:12:53.658Z,11.07
2022-08-29T20:15:21.975Z,10.55
2022-08-29T20:18:02.347Z,10.48
2022-08-29T20:20:34.524Z,10.73
2022-08-29T20:23:01.866Z,10.82
2022-08-29T20:25:29.186Z,10.73
2022-08-29T20:27:56.034Z,9.55
2022-08-29T20:30:27.316Z,10.13
2022-08-29T20:32:54.740Z,11.00
2022-08-29T20:35:41.555Z,10.57
2022-08-29T20:38:09.811Z,10.05
2022-08-29T20:40:38.010Z,10.65
2022-08-29T20:43:06.224Z,10.30
2022-08-29T20:45:33.466Z,9.63
2022-08-29T20:48:02.013Z,9.48
2022-08-29T20:53:00.711Z,9.73
2022-08-29T20:55:27.482Z,9.30
2022-08-29T20:57:54.356Z,9.43
2022-08-29T21:00:22.203Z,10.07
2022-08-29T21:03:08.249Z,10.32
2022-08-29T21:05:43.329Z,9.27
2022-08-29T21:08:21.299Z,9.05
2022-08-29T21:10:49.775Z,10.38
2022-08-29T21:13:17.551Z,9.45
2022-08-29T21:15:45.679Z,10.60
2022-08-29T21:18:16.219Z,10.15
2022-08-29T21:20:53.967Z,11.10
2022-08-29T21:23:23.411Z,10.15
2022-08-29T21:26:00.870Z,9.40
2022-08-29T21:28:29.504Z,9.77
2022-08-29T21:31:02.310Z,10.13
2022-08-29T21:33:29.194Z,11.27
2022-08-29T21:35:59.810Z,9.80
2022-08-29T21:38:28.293Z,10.25
2022-08-29T21:40:58.669Z,10.35
2022-08-29T21:43:25.616Z,10.38
2022-08-29T21:45:52.421Z,10.20
2022-08-29T21:48:19.347Z,11.00
2022-08-29T21:50:46.268Z,10.70
2022-08-29T21:53:14.638Z,10.40
2022-08-29T21:55:42.938Z,12.10
2022-08-29T21:58:09.757Z,10.93
2022-08-29T22:00:42.103Z,11.43
2022-08-29T22:03:12.237Z,11.30
2022-08-29T22:05:43.692Z,10.73
2022-08-29T22:08:13.905Z,11.38
2022-08-29T22:10:42.197Z,10.75
2022-08-29T22:13:09.128Z,11.13
2022-08-29T22:15:54.484Z,12.07
2022-08-29T22:18:22.370Z,11.40
2022-08-29T22:20:52.926Z,11.63
2022-08-29T22:23:23.018Z,12.05
2022-08-29T22:25:50.171Z,11.13
2022-08-29T22:28:17.342Z,11.77
2022-08-29T22:30:44.165Z,10.60
2022-08-29T22:33:16.151Z,10.77
2022-08-29T22:35:43.625Z,10.23
2022-08-29T22:38:10.712Z,11.45
2022-08-29T22:40:37.576Z,11.48
2022-08-29T22:43:04.472Z,11.68
2022-08-29T22:45:32.308Z,11.43
2022-08-29T22:47:59.326Z,10.98
2022-08-29T22:50:27.271Z,10.90
2022-08-29T22:52:58.825Z,11.65
2022-08-29T22:57:52.359Z,10.57
2022-08-29T23:00:23.399Z,16.55
2022-08-29T23:02:51.151Z,11.57
2022-08-29T23:05:20.030Z,12.02
2022-08-29T23:07:46.919Z,11.45
2022-08-29T23:10:15.268Z,11.40
2022-08-29T23:12:42.628Z,11.50
2022-08-29T23:15:14.895Z,11.98
2022-08-29T23:17:42.015Z,11.20
2022-08-29T23:20:11.340Z,10.50
2022-08-29T23:22:38.856Z,11.65
2022-08-29T23:25:08.726Z,11.77
2022-08-29T23:27:35.854Z,11.18
2022-08-29T23:30:05.150Z,11.65
2022-08-29T23:32:31.943Z,10.95
2022-08-29T23:34:58.738Z,11.73
2022-08-29T23:37:26.105Z,11.68
2022-08-29T23:39:52.985Z,11.52
2022-08-29T23:42:19.815Z,11.00
2022-08-29T23:44:48.507Z,11.05
2022-08-29T23:47:16.455Z,11.05
2022-08-29T23:49:43.259Z,11.32
2022-08-29T23:52:10.132Z,10.27
2022-08-29T23:54:36.991Z,9.95
2022-08-29T23:57:04.422Z,11.60
2022-08-29T23:59:52.071Z,10.80
